Tips voor optimaal zoeken

Zoek op trefwoorden of stel een vraag
Typ een trefwoord zoals beurskoers, of stel een vraag zoals Wat is het laatste nieuws over Amerika?.
Exacte zinnen zoeken
Zet aanhalingstekens om een exacte woordcombinatie te vinden, bijvoorbeeld "Johan Cruijff ArenA".
Resultaten filteren
Na het zoeken kunt u filteren op publicatieperiode, bron, onderwerp en auteur.
Zoekopdrachten volgen
Wilt u updates ontvangen over een onderwerp? Via "Mijn nieuws" kunt u een term volgen.
Close sub menu
NASDAQ
NY-Nasdaq Composite 26.506,9901 -77,07 -0,29% 23:15
Stijgers 1 dag
Dalers 1 dag
Indices 1 dag
KLA Corporation +7,3%
Marvell Technology Inc +7,0%
Micron Technology Inc +6,1%
Lam Research Corporation +5,1%
Constellation Energy Corporation +4,9%
Advanced Micro Devices Inc +4,7%
Intel Corporation +4,5%
Applied Materials Inc +4,3%
ASML Holding NV +4,2%
Zoom Communications Inc +3,3%
JD com Inc +1,9%
Texas Instruments Incorporated +1,8%
Lululemon Athletica Inc -17,4%
Autodesk Inc -8,3%
Adobe Inc -6,7%
Tesla Inc -5,9%
Synopsys Inc -5,4%
Workday Inc -5,4%
Netflix Inc -5,3%
Zscaler Inc -4,5%
Cadence Design Systems Inc -4,0%
Cognizant Technology Solutions Corp -3,6%
T Mobile US Inc -3,5%
Intuit Inc -3,4%
AEX* 1.113,50+0,8%
Midkap* 1.113,20+0,3%
AMS Next 20®* 1.622,29+1,3%
FTSE100 10.831,090,0%
Dow Jones 53.414,25-0,5%
NASDAQ 26.506,9901-0,3%
S&P500 7.718,60-0,4%
S&P Future 7.722,00-0,4%
BEL20** 5.852,54-0,5%
CAC 40** 8.278,77-0,1%
DAX 26.046,40+0,2%
* real time    ** slotkoers
NaamKoersVorige+/- %1 wk1 mndDit jaar 1 jaarTijd
Adobe Inc 266,51 285,75 -6,7% -8,6% +3,5% -23,9% -22,6% 22:15
Advanced Micro Devices Inc 477,57 456,16 +4,7% +2,6% -7,9% +123,0% +195,2% 22:15
Airbnb Inc 181,94 185,25 -1,8% -4,0% +21,4% +34,1% +45,1% 22:15
Align Technology Inc 158,57 159,86 -0,8% +0,6% -8,5% +1,5% +17,7% 22:00
Alphabet Inc 335,31 339,08 -1,1% -2,2% -10,7% +6,9% +44,1% 22:15
Alphabet Inc 338,46 342,48 -1,2% -2,3% -10,4% +8,1% +45,7% 22:15
Amazon.com Inc 258,51 258,90 -0,2% -3,0% -6,8% +12,0% +9,7% 22:15
American Electric Power Company 124,50 124,71 -0,2% +1,8% -3,0% +8,0% +14,6% 22:15
Amgen Inc 437,23 444,12 -1,6% +1,1% +12,1% +33,6% +56,1% 22:15
Analog Devices Inc 362,25 356,50 +1,6% +0,1% -4,7% +33,6% +47,2% 22:15
Ansys 374,30 374,30 -- -- -4,7% +11,0% +15,2% 22:00
Apple Inc 319,97 328,21 -2,5% +0,1% +3,4% +17,7% +33,4% 22:42
Applied Materials Inc 454,71 435,91 +4,3% -1,5% -16,8% +76,9% +187,4% 22:15
ASML Holding NV 1.714,88 1.646,19 +4,2% +1,1% +0,2% +60,3% +127,6% 22:15
AstraZeneca Plc 162,70 164,77 -1,3% 0,0% +4,5% -11,5% -0,5% 22:15
Atlassian Corporation PLC 189,58 194,68 -2,6% -0,4% +71,9% +16,9% +12,8% 22:15
Autodesk Inc 217,90 237,52 -8,3% -16,4% -8,1% -26,4% -31,9% 22:15
Automatic Data Processing Inc 277,62 283,53 -2,1% -3,4% +2,6% +7,9% -7,8% 22:15
Baker Hughes Company 63,50 63,64 -0,2% +1,7% +2,9% +39,4% +37,1% 22:15
Biogen Inc 220,83 224,51 -1,6% +1,1% +5,9% +25,5% +57,8% 22:15
Booking Holdings Inc 193,29 195,13 -0,9% -6,0% -0,5% -9,8% -13,5% 22:15
Broadcom Inc 357,90 357,16 +0,2% -3,0% -14,4% +3,4% +16,9% 22:15
Cadence Design Systems Inc 292,70 304,88 -4,0% -14,0% -14,1% -6,4% -16,2% 22:15
Charter Communications Inc 151,99 151,38 +0,4% -1,1% -0,7% -27,2% -41,4% 22:15
Cintas Corporation 200,47 201,05 -0,3% -1,8% -1,6% +6,6% -3,1% 22:15
Cisco Systems Inc 109,20 108,61 +0,5% -0,7% -10,3% +41,8% +60,6% 22:15
Cognizant Technology Solutions Corp 62,31 64,64 -3,6% -2,7% +11,0% -24,9% -12,8% 22:00
Comcast Corp 26,49 26,65 -0,6% -2,1% +6,3% -11,4% -22,0% 22:15
Constellation Energy Corporation 298,96 285,05 +4,9% +8,0% +11,9% -15,4% -3,3% 22:15
Copart Inc 33,72 33,58 +0,4% +2,2% +14,7% -13,9% -32,5% 22:15
CoStar Group Inc 30,91 31,68 -2,4% -4,1% +3,7% -54,0% -65,3% 22:15
Costco Wholesale Corporation 915,74 925,41 -1,0% -3,1% -3,4% +6,2% -4,2% 22:15
CrowdStrike Holdings Inc 213,10 214,97 -0,9% -2,4% +0,9% +81,8% +106,7% 22:15
CSX Corporation 49,41 48,99 +0,9% -3,6% -3,2% +36,3% +51,3% 22:15
Datadog Inc 212,93 214,76 -0,9% -10,1% -26,1% +56,6% +61,6% 22:15
DexCom Inc 87,90 89,71 -2,0% -3,2% +1,1% +32,4% +8,8% 22:15
Diamondback Energy Inc 199,22 202,94 -1,8% +0,8% +3,8% +32,5% +39,6% 22:15
Dollar Tree Inc 131,42 131,04 +0,3% +2,5% +0,5% +6,8% +31,1% 22:15
eBay Inc 103,41 105,86 -2,3% -2,1% -5,7% +18,7% +11,2% 22:15
Electronic Arts Inc 209,70 209,70 -- -- -0,1% +2,6% +24,9% 22:15
Enphase Energy Inc 36,37 36,31 +0,2% -2,4% -12,9% +13,5% -0,4% 22:15
Exelon Corporation 43,64 44,53 -2,0% -0,7% -4,8% +0,1% +0,7% 22:15
Fastenal Company 49,60 49,23 +0,8% -0,4% -0,2% +23,6% -1,3% 22:00
Fortinet Inc 156,29 156,36 0,0% -5,8% -7,1% +96,8% +104,5% 22:15
Gilead Sciences Inc 151,00 151,22 -0,1% +3,6% +11,6% +23,0% +33,9% 22:15
Global Foundries Inc 45,21 44,53 +1,5% +1,0% -13,1% +29,5% +35,6% 22:15
Honeywell International Inc 209,61 207,63 +1,0% -3,6% -15,7% +7,4% -2,6% 22:15
IDEXX Laboratories Inc 535,38 529,29 +1,2% -3,5% -9,0% -20,9% -16,4% 22:15
Illumina Inc 218,22 221,66 -1,6% +1,2% +7,5% +66,4% +123,4% 22:15
Intel Corporation 95,80 91,67 +4,5% +7,1% -5,0% +159,6% +289,3% 22:15
Intuit Inc 332,70 344,30 -3,4% -7,1% +2,8% -49,8% -50,2% 22:15
Intuitive Surgical Inc 366,70 369,83 -0,8% -1,6% -0,4% -35,3% -19,3% 22:15
JD com Inc 28,26 27,74 +1,9% -1,7% -14,3% -1,5% -8,6% 22:15
Keurig Dr Pepper Inc 32,59 32,88 -0,9% +1,3% +4,8% +16,4% +11,4% 22:00
KLA Corporation 185,60 172,94 +7,3% +5,7% -5,0% +52,7% +112,5% 22:15
Kraft Heinz Company 24,85 25,42 -2,2% -3,3% -6,7% +2,5% -7,8% 22:15
Lam Research Corporation 307,65 292,66 +5,1% +1,9% -3,2% +79,7% +206,4% 22:15
Lucid Group Inc 4,68 4,60 +1,7% -6,6% -39,8% -55,7% -71,0% 22:15
Lululemon Athletica Inc 100,61 121,77 -17,4% -16,7% -18,2% -51,6% -51,2% 22:15
Marriott International Inc 336,51 336,07 +0,1% -4,2% -2,5% +8,5% +25,2% 22:15
Marvell Technology Inc 223,55 208,83 +7,0% +3,2% +2,3% +163,1% +248,8% 22:15
MercadoLibre Inc 1.978,36 1.991,06 -0,6% +0,6% +4,8% -1,8% -18,2% 22:15
Meta Platforms Inc 616,77 610,68 +1,0% +6,7% +4,9% -6,6% -17,6% 22:15
Microchip Technology Inc 74,17 73,11 +1,4% +1,7% -8,1% +16,4% +15,1% 22:15
Micron Technology Inc 1.016,59 958,16 +6,1% +9,0% +13,9% +256,2% +718,4% 22:15
Microsoft Corporation 499,70 510,12 -2,0% -2,7% +1,4% +3,3% -1,6% 22:15
Moderna Inc 145,55 148,87 -2,2% +5,5% +155,4% +393,6% +499,5% 22:15
Mondelez International Inc 61,28 61,45 -0,3% -1,7% -1,3% +13,8% +0,6% 22:15
Monster Beverage Corporation 43,82 44,08 -0,6% -6,5% -6,9% +14,3% +38,1% 22:15
Netflix Inc 78,25 82,67 -5,3% -4,2% +6,4% -16,5% -37,8% 22:15
NVIDIA Corporation 230,36 228,45 +0,8% +5,9% +8,7% +23,5% +34,2% 22:15
NXP Semiconductors NV 227,84 224,99 +1,3% +1,9% -4,1% +5,0% +1,1% 22:15
O Reilly Automotive Inc 87,89 87,38 +0,6% -0,7% -4,3% -3,6% -16,3% 22:15
Old Dominion Freight Line Inc 185,84 185,75 +0,1% -6,4% -15,3% +18,5% +24,9% 22:00
PACCAR Inc 124,70 124,51 +0,2% -0,5% -8,3% +13,9% +27,0% 22:15
Palo Alto Networks Inc 333,26 331,94 +0,4% -10,3% -9,0% +80,9% +73,3% 22:15
Paychex Inc 121,71 125,08 -2,7% -4,2% +2,6% +8,5% -11,4% 22:15
PayPal Holdings Inc 54,96 56,82 -3,3% +2,4% -6,1% -5,9% -19,7% 22:15
PDD Holdings Inc 82,21 81,63 +0,7% -4,1% -9,7% -27,5% -33,6% 22:15
PepsiCo Inc 137,63 140,02 -1,7% -2,4% -1,1% -4,1% -6,3% 22:15
QUALCOMM Inc 168,74 168,57 +0,1% +2,8% +3,7% -1,4% +5,7% 22:15
Regeneron Pharmaceuticals Inc 827,72 843,47 -1,9% +4,2% +8,8% +7,2% +45,9% 22:15
Rivian Automotive Inc 15,74 15,91 -1,1% -2,1% -0,1% -20,1% +14,9% 22:15
Ross Stores Inc 230,69 231,67 -0,4% +0,9% -8,1% +28,1% +51,0% 22:15
Seagen 228,89 228,74 -- -- +7,2% +78,1% +78,3% 22:00
SiriusXM Holdings Inc 28,99 29,77 -2,6% +1,6% -5,7% +45,0% +22,9% 22:15
Starbucks Corporation 104,47 105,82 -1,3% -3,1% -0,5% +24,1% +20,1% 22:15
Synopsys Inc 393,84 416,31 -5,4% -11,0% -2,5% -16,2% -34,6% 22:15
T Mobile US Inc 181,52 188,02 -3,5% +0,1% +2,4% -10,6% -28,0% 22:15
Tesla Inc 354,08 376,37 -5,9% +1,5% +8,2% -21,3% +4,6% 22:15
Texas Instruments Incorporated 258,44 253,83 +1,8% -0,1% -8,9% +49,0% +38,0% 22:15
Verisk Analytics Inc 185,79 190,60 -2,5% -3,1% -3,6% -16,9% -31,2% 22:00
Vertex Pharmaceuticals Inc 546,12 557,96 -2,1% +0,8% +14,1% +20,5% +37,6% 22:15
Walgreens Boots Alliance 11,98 11,98 -- -- +0,5% +28,4% +40,6% 22:00
Warner Brothers Discovery Inc 28,25 28,37 -0,4% -1,8% +9,5% -2,0% +140,0% 22:15
Workday Inc 195,79 206,92 -5,4% -4,4% +14,3% -8,8% -15,3% 22:15
Xcel Energy Inc 75,72 76,34 -0,8% -1,0% -2,6% +2,5% +4,8% 22:15
Zoom Communications Inc 101,33 98,14 +3,3% +2,9% -0,8% +17,4% +22,4% 22:15
Zscaler Inc 169,80 177,80 -4,5% -7,8% +4,0% -24,5% -36,7% 22:15
Powered by

Schakel browser notificaties in

Schakel browser notificaties in om meldingen te ontvangen op dit apparaat.

Browser notificaties inschakelen

U heeft browser notificaties voor fd.nl eerder geweigerd. Ga naar browser instellingen en sta browser notificaties toe voor fd.nl. De precieze handelingen zijn afhankelijk van uw browser.

U volgt een onderwerp

Wanneer deze zoekterm in een artikel voorkomt, zult u deze terugvinden in Mijn nieuws onder ‘Eurobonds’.

Wilt u via de FD App meldingen ontvangen voor dit onderwerp?

Wilt u via de FD App meldingen ontvangen voor dit onderwerp?

Ons privacy statement is van toepassing.

Meldingen

Wanneer deze zoekterm in een artikel voorkomt, zult u deze terugvinden in Mijn nieuws onder ‘Eurobonds’.

Wilt u via de FD App meldingen ontvangen voor dit onderwerp?

Wilt u via de FD App meldingen ontvangen voor dit onderwerp?